createdAt,value
2022-12-23T00:03:45.362Z,98176.81
2022-12-23T00:08:59.194Z,98174.85
2022-12-23T00:14:38.706Z,98176.35
2022-12-23T00:20:29.563Z,98178.80
2022-12-23T00:25:58.797Z,98181.77
2022-12-23T00:31:24.788Z,98186.15
2022-12-23T00:36:51.097Z,98198.05
2022-12-23T00:42:29.838Z,98208.45
2022-12-23T00:48:02.974Z,98213.34
2022-12-23T00:53:24.091Z,98210.84
2022-12-23T00:58:42.554Z,98217.55
2022-12-23T01:04:20.578Z,98220.83
2022-12-23T01:09:35.467Z,98226.65
2022-12-23T01:14:40.539Z,98230.27
2022-12-23T01:19:48.499Z,98229.53
2022-12-23T01:25:01.472Z,98229.10
2022-12-23T01:30:10.225Z,98221.90
2022-12-23T01:35:31.467Z,98223.13
2022-12-23T01:40:53.465Z,98226.29
2022-12-23T01:45:58.388Z,98218.31
2022-12-23T01:51:30.644Z,98214.66
2022-12-23T02:03:00.492Z,98206.19
2022-12-23T02:08:42.238Z,98210.11
2022-12-23T02:15:07.446Z,98217.02
2022-12-23T02:20:40.609Z,98220.42
2022-12-23T02:26:28.397Z,98228.79
2022-12-23T02:32:22.938Z,98231.15
2022-12-23T02:53:26.730Z,98232.94
2022-12-23T03:05:00.965Z,98246.98
2022-12-23T03:11:00.119Z,98246.03
2022-12-23T03:16:29.590Z,98248.52
2022-12-23T03:23:55.284Z,98246.84
2022-12-23T03:28:46.602Z,98251.75
2022-12-23T03:34:31.117Z,98249.66
2022-12-23T03:47:04.278Z,98254.92
2022-12-23T04:07:09.048Z,98246.90
2022-12-23T04:19:19.870Z,98250.98
2022-12-23T04:31:12.094Z,98245.55
2022-12-23T04:36:30.245Z,98246.67
2022-12-23T04:41:42.212Z,98248.28
2022-12-23T04:47:38.697Z,98251.00
2022-12-23T04:53:35.184Z,98253.20
2022-12-23T04:59:43.059Z,98252.45
2022-12-23T05:05:45.157Z,98245.20
2022-12-23T05:11:03.370Z,98238.59
2022-12-23T05:16:54.915Z,98227.06
2022-12-23T05:22:03.645Z,98224.13
2022-12-23T05:28:03.028Z,98220.05
2022-12-23T05:33:19.872Z,98219.95
2022-12-23T05:39:00.444Z,98213.74
2022-12-23T05:44:37.871Z,98206.80
2022-12-23T05:50:08.625Z,98213.45
2022-12-23T06:03:28.035Z,98210.56
2022-12-23T06:14:38.121Z,98226.41
2022-12-23T06:20:57.739Z,98227.38
2022-12-23T06:38:18.003Z,98228.97
2022-12-23T06:43:22.472Z,98235.06
2022-12-23T06:48:26.263Z,98239.18
2022-12-23T06:53:36.623Z,98233.85
2022-12-23T06:58:42.295Z,98230.27
2022-12-23T07:03:50.948Z,98227.80
2022-12-23T07:08:57.349Z,98229.98
2022-12-23T07:14:02.574Z,98230.89
2022-12-23T07:36:03.476Z,98226.48
2022-12-23T07:41:15.638Z,98224.48
2022-12-23T07:47:09.966Z,98228.86
2022-12-23T07:52:15.366Z,98227.91
2022-12-23T07:57:18.744Z,98233.93
2022-12-23T08:02:25.510Z,98229.05
2022-12-23T08:07:29.028Z,98221.05
2022-12-23T08:12:34.258Z,98214.10
2022-12-23T08:18:27.999Z,98211.75
2022-12-23T08:25:36.049Z,98214.64
2022-12-23T08:31:10.086Z,98213.31
2022-12-23T08:36:22.448Z,98212.48
2022-12-23T08:41:29.602Z,98208.35
2022-12-23T08:46:33.104Z,98206.73
2022-12-23T08:51:37.295Z,98210.56
2022-12-23T08:56:42.061Z,98198.90
2022-12-23T09:01:45.251Z,98195.29
2022-12-23T09:06:48.374Z,98194.42
2022-12-23T09:11:51.664Z,98185.10
2022-12-23T09:16:54.892Z,98178.46
2022-12-23T09:21:58.008Z,98172.52
2022-12-23T09:27:01.256Z,98166.89
2022-12-23T09:32:04.646Z,98163.03
2022-12-23T09:37:07.927Z,98164.45
2022-12-23T09:42:29.460Z,98157.06
2022-12-23T09:47:34.188Z,98152.48
2022-12-23T09:52:57.768Z,98148.58
2022-12-23T09:58:05.559Z,98148.61
2022-12-23T10:03:22.660Z,98137.92
2022-12-23T10:08:37.592Z,98123.17
2022-12-23T10:13:58.676Z,98100.90
2022-12-23T10:19:07.082Z,98099.20
2022-12-23T10:24:16.959Z,98092.15
2022-12-23T10:29:23.083Z,98086.08
2022-12-23T10:34:45.081Z,98088.45
2022-12-23T10:40:25.705Z,98086.55
2022-12-23T10:46:06.639Z,98086.81
2022-12-23T10:51:23.362Z,98092.04
2022-12-23T10:56:30.050Z,98087.25
2022-12-23T11:01:34.838Z,98078.44
2022-12-23T11:06:41.629Z,98078.20
2022-12-23T11:12:01.743Z,98074.30
2022-12-23T11:17:18.198Z,98067.15
2022-12-23T11:22:50.813Z,98066.40
2022-12-23T11:28:03.265Z,98061.94
2022-12-23T11:33:26.480Z,98061.52
2022-12-23T11:38:39.766Z,98055.88
2022-12-23T11:43:43.729Z,98052.58
2022-12-23T11:48:52.957Z,98052.63
2022-12-23T11:54:04.891Z,98048.73
2022-12-23T11:59:34.423Z,98048.13
2022-12-23T12:04:39.016Z,98053.76
2022-12-23T12:09:46.124Z,98058.83
2022-12-23T12:14:52.871Z,98054.61
2022-12-23T12:20:25.770Z,98058.91
2022-12-23T12:31:55.598Z,98065.84
2022-12-23T12:37:23.602Z,98066.28
2022-12-23T12:42:46.900Z,98062.55
2022-12-23T12:48:16.294Z,98063.59
2022-12-23T12:53:24.375Z,98060.84
2022-12-23T12:58:31.311Z,98061.36
2022-12-23T13:03:42.330Z,98054.98
2022-12-23T13:09:19.438Z,98055.42
2022-12-23T13:15:48.954Z,98056.05
2022-12-23T13:20:50.668Z,98059.58
2022-12-23T13:26:01.940Z,98068.44
2022-12-23T13:38:05.016Z,98074.39
2022-12-23T13:43:24.435Z,98082.65
2022-12-23T13:48:53.142Z,98084.78
2022-12-23T13:54:19.630Z,98092.07
2022-12-23T13:59:23.242Z,98099.16
2022-12-23T14:04:31.887Z,98098.36
2022-12-23T14:09:53.215Z,98097.73
2022-12-23T14:15:09.250Z,98101.81
2022-12-23T14:20:21.783Z,98106.77
2022-12-23T14:25:51.092Z,98110.85
2022-12-23T14:30:56.679Z,98115.48
2022-12-23T14:36:35.735Z,98117.40
2022-12-23T14:41:50.716Z,98118.38
2022-12-23T14:46:57.771Z,98119.36
2022-12-23T14:52:53.198Z,98120.71
2022-12-23T15:03:59.190Z,98129.87
2022-12-23T15:09:18.032Z,98138.14
2022-12-23T15:15:16.799Z,98135.60
2022-12-23T15:20:57.265Z,98135.11
2022-12-23T15:34:04.720Z,98130.21
2022-12-23T15:39:21.100Z,98127.27
2022-12-23T15:44:37.252Z,98120.67
2022-12-23T15:49:40.531Z,98121.99
2022-12-23T15:55:49.080Z,98127.11
2022-12-23T16:01:27.073Z,98132.84
2022-12-23T16:06:36.372Z,98122.45
2022-12-23T16:12:20.018Z,98120.15
2022-12-23T16:17:37.334Z,98130.92
2022-12-23T16:22:42.207Z,98137.48
2022-12-23T16:28:02.759Z,98142.38
2022-12-23T16:34:47.863Z,98140.04
2022-12-23T16:40:36.645Z,98150.05
2022-12-23T16:46:09.809Z,98143.66
2022-12-23T16:51:41.596Z,98135.63
2022-12-23T17:13:15.256Z,98117.50
2022-12-23T17:19:29.453Z,98111.72
2022-12-23T18:03:43.204Z,98120.10
2022-12-23T18:10:02.059Z,98126.53
2022-12-23T18:16:34.712Z,98133.50
2022-12-23T18:23:15.667Z,98139.03
2022-12-23T18:29:30.278Z,98139.98
2022-12-23T18:42:10.204Z,98146.84
2022-12-23T19:02:26.276Z,98153.64
2022-12-23T19:07:39.151Z,98157.82
2022-12-23T19:12:42.782Z,98168.98
2022-12-23T19:17:51.432Z,98171.51
2022-12-23T19:23:25.225Z,98174.66
2022-12-23T19:29:46.064Z,98175.30
2022-12-23T19:36:26.320Z,98168.65
2022-12-23T19:43:04.305Z,98161.05
2022-12-23T19:49:52.966Z,98155.63
2022-12-23T19:56:21.128Z,98154.50
2022-12-23T20:02:07.108Z,98170.84
2022-12-23T20:07:21.745Z,98169.89
2022-12-23T20:12:26.546Z,98163.02
2022-12-23T20:17:42.138Z,98163.98
2022-12-23T20:38:47.747Z,98168.09
2022-12-23T20:51:29.270Z,98145.41
2022-12-23T20:56:53.086Z,98145.23
2022-12-23T21:03:10.744Z,98131.04
2022-12-23T21:09:18.123Z,98136.33
2022-12-23T21:15:25.769Z,98132.34
2022-12-23T21:21:18.787Z,98130.83
2022-12-23T21:26:56.394Z,98122.38
2022-12-23T21:32:44.937Z,98116.59
2022-12-23T21:38:24.092Z,98111.25
2022-12-23T21:51:43.771Z,98094.05
2022-12-23T21:58:08.334Z,98085.14
2022-12-23T22:04:23.062Z,98084.14
2022-12-23T22:10:22.576Z,98076.73
2022-12-23T22:16:50.099Z,98082.39
2022-12-23T22:21:53.862Z,98093.80
2022-12-23T22:26:57.111Z,98084.48
2022-12-23T22:32:00.472Z,98086.31
2022-12-23T22:37:03.995Z,98083.65
2022-12-23T22:42:09.554Z,98083.68
2022-12-23T22:47:12.647Z,98085.14
2022-12-23T22:52:15.781Z,98089.14
2022-12-23T22:57:18.832Z,98083.33
2022-12-23T23:02:22.086Z,98075.33
2022-12-23T23:07:35.385Z,98066.27
2022-12-23T23:12:39.170Z,98059.48
2022-12-23T23:17:45.685Z,98052.11
2022-12-23T23:29:50.624Z,98045.55
2022-12-23T23:34:54.090Z,98045.19
2022-12-23T23:40:07.151Z,98035.61
2022-12-23T23:45:43.626Z,98039.73
2022-12-23T23:50:47.751Z,98036.39
2022-12-23T23:55:50.908Z,98037.75
